Time;durP1;ratioP1;P1;durP2;ratioP2;P2;SDS_P1;SDS_P2;PMS_P1;PMS_P2;Temp;Humidity;BMP_temperature;BMP_pressure;BME280_temperature;BME280_humidity;BME280_pressure;Samples;Min_cycle;Max_cycle;Signal;HPM_P1;HPM_P2
2022/02/24 00:00:20;;;;;;;24.13;16.63;;;;;;;9.57;49.14;102323.34;5108652;28;20556;-59
2022/02/24 00:02:47;;;;;;;24.77;16.35;;;;;;;9.52;49.35;102322.63;5113815;28;20043;-59
2022/02/24 00:05:15;;;;;;;25.20;16.90;;;;;;;9.49;49.47;102320.94;5116226;28;20048;-59
2022/02/24 00:07:42;;;;;;;23.88;15.70;;;;;;;9.45;49.44;102325.41;5115834;28;20047;-59
2022/02/24 00:10:12;;;;;;;24.40;16.05;;;;;;;9.36;49.89;102323.03;5113540;28;20461;-59
2022/02/24 00:12:41;;;;;;;25.35;16.05;;;;;;;9.31;50.09;102317.91;5115640;28;20048;-59
2022/02/24 00:15:07;;;;;;;25.38;16.98;;;;;;;9.30;50.20;102321.41;5115755;28;20092;-59
2022/02/24 00:17:34;;;;;;;24.40;16.13;;;;;;;9.29;50.25;102326.69;5115730;28;20040;-58
2022/02/24 00:20:05;;;;;;;24.33;16.38;;;;;;;9.29;50.29;102310.97;5115669;28;20488;-60
2022/02/24 00:22:32;;;;;;;26.30;16.15;;;;;;;9.24;50.37;102316.34;5115559;28;20130;-59
2022/02/24 00:25:00;;;;;;;28.70;16.35;;;;;;;9.24;50.58;102311.13;5115542;28;20039;-61
2022/02/24 00:27:27;;;;;;;23.67;15.55;;;;;;;9.24;50.52;102308.50;5107007;28;20058;-59
2022/02/24 00:29:53;;;;;;;23.90;14.73;;;;;;;9.24;50.57;102307.63;5115429;28;20047;-59
2022/02/24 00:32:20;;;;;;;23.63;15.57;;;;;;;9.25;50.57;102310.19;5115587;28;20450;-59
2022/02/24 00:34:47;;;;;;;23.98;15.40;;;;;;;9.26;50.83;102303.22;5115228;28;20051;-59
2022/02/24 00:37:15;;;;;;;24.33;15.00;;;;;;;9.27;50.89;102302.31;5115650;28;20075;-59
2022/02/24 00:39:43;;;;;;;27.38;15.23;;;;;;;9.27;51.17;102316.25;5097134;28;20089;-59
2022/02/24 00:42:10;;;;;;;23.13;14.43;;;;;;;9.31;51.21;102310.03;5114378;28;20048;-60
2022/02/24 00:44:37;;;;;;;24.17;15.43;;;;;;;9.34;51.24;102316.97;5099381;28;20054;-59
2022/02/24 00:47:04;;;;;;;22.13;14.82;;;;;;;9.32;51.34;102309.16;5105552;28;20507;-59
2022/02/24 00:49:31;;;;;;;23.00;14.52;;;;;;;9.31;51.50;102304.78;5115189;28;20541;-59
2022/02/24 00:51:58;;;;;;;28.17;14.95;;;;;;;9.29;51.49;102296.13;5108942;28;20075;-59
2022/02/24 00:54:25;;;;;;;20.80;14.32;;;;;;;9.36;51.54;102301.19;5104136;28;20092;-59
2022/02/24 00:56:51;;;;;;;21.88;14.95;;;;;;;9.38;51.50;102297.63;5115030;28;20047;-59
2022/02/24 00:59:18;;;;;;;22.15;13.80;;;;;;;9.39;51.43;102299.34;5113115;27;20422;-58
2022/02/24 01:01:45;;;;;;;24.42;14.90;;;;;;;9.40;51.41;102305.47;5104758;28;20044;-59
2022/02/24 01:04:12;;;;;;;25.85;15.52;;;;;;;9.39;51.64;102303.75;5111059;28;20081;-58
2022/02/24 01:06:38;;;;;;;23.70;15.05;;;;;;;9.37;51.53;102300.28;5114860;28;20117;-59
2022/02/24 01:09:05;;;;;;;22.63;13.70;;;;;;;9.34;51.60;102297.78;5114596;28;20483;-60
2022/02/24 01:11:31;;;;;;;22.38;14.48;;;;;;;9.28;51.66;102294.41;5114821;28;20041;-59
2022/02/24 01:13:58;;;;;;;21.05;14.15;;;;;;;9.26;51.62;102301.44;5114023;28;20047;-59
2022/02/24 01:16:26;;;;;;;20.40;13.10;;;;;;;9.25;51.55;102293.63;5102493;28;20047;-59
2022/02/24 01:18:52;;;;;;;17.77;13.02;;;;;;;9.26;51.36;102296.19;5114624;28;20047;-59
2022/02/24 01:21:20;;;;;;;20.60;13.70;;;;;;;9.24;51.21;102286.66;5114639;28;20043;-59
2022/02/24 01:23:46;;;;;;;20.27;13.98;;;;;;;9.23;50.89;102288.44;5114207;28;20055;-59
2022/02/24 01:26:13;;;;;;;18.33;12.55;;;;;;;9.23;50.93;102280.56;5114426;28;20445;-59
2022/02/24 01:28:40;;;;;;;18.60;13.43;;;;;;;9.21;50.75;102279.75;5114549;28;20047;-60
2022/02/24 01:31:06;;;;;;;20.95;14.50;;;;;;;9.16;50.75;102281.63;5114432;28;20048;-59
2022/02/24 01:33:33;;;;;;;21.98;14.35;;;;;;;9.17;50.82;102280.72;5100284;27;20039;-62
2022/02/24 01:36:00;;;;;;;20.63;14.90;;;;;;;9.18;50.49;102278.97;5114271;28;20121;-59
2022/02/24 01:38:26;;;;;;;20.50;14.30;;;;;;;9.13;50.59;102271.25;5113997;28;20047;-59
2022/02/24 01:40:53;;;;;;;22.52;14.45;;;;;;;9.13;50.65;102273.88;5114123;28;20043;-59
2022/02/24 01:43:19;;;;;;;21.80;14.30;;;;;;;9.12;50.55;102269.53;5114152;28;20044;-59
2022/02/24 01:45:46;;;;;;;23.92;15.55;;;;;;;9.12;50.53;102265.13;5099431;28;20054;-59
2022/02/24 01:48:13;;;;;;;22.98;15.32;;;;;;;9.11;50.54;102258.16;5107631;28;20101;-58
2022/02/24 01:50:40;;;;;;;21.67;14.73;;;;;;;9.06;50.75;102260.03;5109785;28;20044;-59
2022/02/24 01:53:06;;;;;;;20.13;14.50;;;;;;;9.01;50.86;102258.47;5113449;28;20100;-58
2022/02/24 01:55:33;;;;;;;21.00;14.52;;;;;;;9.02;50.90;102253.19;5113308;28;20381;-59
2022/02/24 01:58:00;;;;;;;21.30;14.77;;;;;;;9.02;50.84;102244.47;5113766;28;20089;-59
2022/02/24 02:00:27;;;;;;;21.85;15.27;;;;;;;9.02;50.79;102247.09;5113905;28;20044;-59
2022/02/24 02:02:53;;;;;;;21.25;15.20;;;;;;;8.94;50.94;102242.91;5108571;28;20480;-59
2022/02/24 02:05:20;;;;;;;20.10;13.73;;;;;;;8.83;51.35;102243.16;5114058;28;20049;-59
2022/02/24 02:07:47;;;;;;;19.65;13.88;;;;;;;8.72;51.25;102241.72;5113481;28;20052;-59
2022/02/24 02:10:13;;;;;;;18.52;14.38;;;;;;;8.63;51.22;102243.69;5113755;28;20043;-59
2022/02/24 02:12:51;;;;;;;19.33;13.85;;;;;;;8.54;51.14;102248.25;5113344;28;20062;-59
2022/02/24 02:15:19;;;;;;;20.45;13.90;;;;;;;8.45;51.31;102250.16;5113050;28;20572;-60
2022/02/24 02:17:46;;;;;;;19.38;13.80;;;;;;;8.46;51.10;102249.28;5113388;28;20535;-60
2022/02/24 02:20:13;;;;;;;18.83;13.40;;;;;;;8.42;51.30;102244.16;5107425;28;20108;-58
2022/02/24 02:22:42;;;;;;;20.25;13.52;;;;;;;8.40;51.20;102243.31;5112905;28;20043;-58
2022/02/24 02:25:11;;;;;;;19.67;13.88;;;;;;;8.34;51.42;102250.41;5112528;28;20047;-58
2022/02/24 02:27:39;;;;;;;18.35;12.90;;;;;;;8.25;51.69;102250.63;5113172;28;20108;-59
2022/02/24 02:30:07;;;;;;;18.25;12.50;;;;;;;8.18;51.41;102241.19;5112923;28;20070;-59
2022/02/24 02:32:34;;;;;;;17.55;13.10;;;;;;;8.14;51.71;102250.88;5113182;28;20048;-59
2022/02/24 02:35:01;;;;;;;18.95;13.70;;;;;;;8.13;51.64;102249.13;5112026;28;20450;-58
2022/02/24 02:37:28;;;;;;;20.13;14.07;;;;;;;8.07;51.67;102245.81;5095647;28;20382;-58
2022/02/24 02:39:54;;;;;;;19.70;13.57;;;;;;;8.05;51.34;102252.81;5102336;28;20055;-59
2022/02/24 02:42:21;;;;;;;21.15;13.88;;;;;;;8.04;51.71;102246.72;5096103;28;20047;-59
2022/02/24 02:44:48;;;;;;;17.65;13.13;;;;;;;8.03;51.55;102241.53;5093903;28;20048;-59
2022/02/24 02:47:15;;;;;;;18.33;12.25;;;;;;;8.01;51.68;102245.03;5109443;28;20058;-59
2022/02/24 02:49:41;;;;;;;18.70;13.38;;;;;;;7.97;51.73;102243.41;5112876;28;20442;-58
2022/02/24 02:52:08;;;;;;;17.00;12.30;;;;;;;7.92;51.74;102254.84;5112770;28;20048;-60
2022/02/24 02:54:35;;;;;;;19.83;12.98;;;;;;;7.90;51.72;102254.00;5111645;28;20039;-59
2022/02/24 02:57:02;;;;;;;17.13;12.48;;;;;;;7.87;51.72;102256.69;5112826;28;20043;-58
2022/02/24 02:59:29;;;;;;;20.48;13.27;;;;;;;7.89;51.72;102250.53;5107218;28;20040;-59
2022/02/24 03:01:55;;;;;;;18.17;12.50;;;;;;;7.89;51.75;102249.69;5103982;28;20048;-58
2022/02/24 03:04:23;;;;;;;19.33;13.10;;;;;;;7.87;51.78;102247.06;5112671;28;20046;-58
2022/02/24 03:06:50;;;;;;;19.55;13.50;;;;;;;7.87;51.67;102247.06;5112624;28;20112;-59
2022/02/24 03:09:17;;;;;;;21.27;14.40;;;;;;;7.87;51.75;102246.22;5110543;28;20058;-58
2022/02/24 03:11:43;;;;;;;20.98;13.45;;;;;;;7.80;52.04;102245.50;5092689;28;20484;-59
2022/02/24 03:14:10;;;;;;;18.15;12.82;;;;;;;7.72;52.03;102250.88;5093060;28;20044;-58
2022/02/24 03:16:37;;;;;;;18.40;13.07;;;;;;;7.64;52.34;102244.94;5093413;28;20187;-58
2022/02/24 03:19:04;;;;;;;20.40;12.95;;;;;;;7.61;52.61;102245.88;5092857;28;20044;-58
2022/02/24 03:21:31;;;;;;;15.75;12.38;;;;;;;7.60;52.33;102251.97;5093265;28;20048;-59
2022/02/24 03:23:57;;;;;;;17.75;12.70;;;;;;;7.59;52.33;102239.81;5092483;28;20434;-58
2022/02/24 03:26:24;;;;;;;19.25;13.00;;;;;;;7.61;52.57;102239.78;5092780;28;20040;-59
2022/02/24 03:28:52;;;;;;;21.00;12.23;;;;;;;7.62;52.56;102234.53;5092650;28;20040;-59
2022/02/24 03:31:19;;;;;;;18.63;12.35;;;;;;;7.63;52.42;102236.25;5093063;28;20046;-59
2022/02/24 03:33:46;;;;;;;20.30;13.23;;;;;;;7.64;52.35;102235.38;5092560;28;20086;-59
2022/02/24 03:36:13;;;;;;;22.63;12.85;;;;;;;7.61;52.62;102238.03;5093719;28;20056;-59
2022/02/24 03:38:40;;;;;;;19.05;13.38;;;;;;;7.59;52.84;102229.38;5096961;28;20048;-59
2022/02/24 03:41:18;;;;;;;20.20;12.60;;;;;;;7.57;52.83;102223.31;5096779;28;20112;-59
2022/02/24 03:43:46;;;;;;;18.13;12.50;;;;;;;7.62;52.64;102228.47;5095890;28;20040;-59
2022/02/24 03:46:13;;;;;;;18.73;13.20;;;;;;;7.65;52.63;102231.84;5104376;28;20053;-59
2022/02/24 03:48:40;;;;;;;19.17;12.75;;;;;;;7.65;52.64;102231.00;5116207;28;20139;-58
2022/02/24 03:51:07;;;;;;;21.10;14.07;;;;;;;7.66;52.69;102224.88;5116488;28;20043;-59
2022/02/24 03:53:33;;;;;;;18.23;13.85;;;;;;;7.65;52.56;102220.53;5116039;28;20048;-59
2022/02/24 03:56:00;;;;;;;20.45;14.35;;;;;;;7.66;52.85;102230.09;5115953;28;20056;-59
2022/02/24 03:58:27;;;;;;;24.20;15.70;;;;;;;7.66;52.85;102227.50;5112110;28;20108;-59
2022/02/24 04:00:53;;;;;;;22.67;13.98;;;;;;;7.58;52.99;102230.25;5116096;28;20048;-59
2022/02/24 04:03:24;;;;;;;21.92;14.38;;;;;;;7.57;53.00;102230.28;5112391;28;20044;-60
2022/02/24 04:05:50;;;;;;;20.05;13.02;;;;;;;7.47;53.16;102235.69;5111473;28;20050;-60
2022/02/24 04:08:18;;;;;;;20.75;14.13;;;;;;;7.44;53.02;102232.28;5112753;28;20101;-59
2022/02/24 04:10:44;;;;;;;19.85;13.93;;;;;;;7.41;53.14;102232.34;5094785;28;20088;-59
2022/02/24 04:13:11;;;;;;;21.70;13.13;;;;;;;7.39;53.37;102231.50;5106940;27;20048;-59
2022/02/24 04:15:38;;;;;;;34.53;14.10;;;;;;;7.32;53.46;102241.22;5104919;28;20050;-59
2022/02/24 04:18:07;;;;;;;28.60;14.27;;;;;;;7.29;53.20;102236.06;5112114;28;20177;-59
2022/02/24 04:20:33;;;;;;;20.60;13.07;;;;;;;7.30;53.33;102235.16;5112444;28;20396;-58
2022/02/24 04:23:00;;;;;;;20.17;12.80;;;;;;;7.26;53.44;102238.72;5112121;28;20503;-58
2022/02/24 04:25:26;;;;;;;17.42;12.77;;;;;;;7.19;53.38;102238.81;5112425;28;20054;-60
2022/02/24 04:27:53;;;;;;;21.50;13.18;;;;;;;7.18;53.25;102238.84;5111955;28;20048;-59
2022/02/24 04:30:21;;;;;;;17.55;12.73;;;;;;;7.14;53.40;102238.03;5110554;28;20141;-60
2022/02/24 04:32:48;;;;;;;18.63;12.68;;;;;;;7.10;53.25;102233.78;5112021;28;20055;-58
2022/02/24 04:35:15;;;;;;;27.83;14.43;;;;;;;7.10;53.34;102230.31;5111955;28;20051;-59
2022/02/24 04:37:42;;;;;;;27.38;15.07;;;;;;;7.08;53.16;102219.88;5111990;28;20109;-58
2022/02/24 04:40:12;;;;;;;25.25;13.57;;;;;;;7.04;53.50;102220.81;5111858;28;20052;-59
2022/02/24 04:42:39;;;;;;;26.08;13.73;;;;;;;6.99;53.25;102218.28;5111989;28;20044;-58
2022/02/24 04:45:06;;;;;;;19.13;12.20;;;;;;;6.99;53.39;102214.84;5098719;28;20052;-59
2022/02/24 04:47:33;;;;;;;19.27;13.10;;;;;;;6.98;53.33;102211.38;5108967;28;20044;-59
2022/02/24 04:50:00;;;;;;;19.30;12.60;;;;;;;6.95;53.48;102213.16;5111694;28;20059;-59
2022/02/24 04:52:26;;;;;;;18.73;11.85;;;;;;;6.94;53.36;102211.44;5112178;28;20051;-59
2022/02/24 04:54:53;;;;;;;18.73;12.88;;;;;;;6.92;53.38;102208.88;5111470;28;20047;-58
2022/02/24 04:57:21;;;;;;;18.67;12.95;;;;;;;6.89;53.26;102208.91;5111785;28;20055;-58
2022/02/24 04:59:47;;;;;;;24.42;13.50;;;;;;;6.91;53.55;102203.66;5111808;28;20048;-59
2022/02/24 05:02:17;;;;;;;21.55;13.63;;;;;;;6.90;53.75;102197.59;5111512;28;20059;-58
2022/02/24 05:04:43;;;;;;;20.45;13.10;;;;;;;6.89;53.84;102206.28;5109906;28;20467;-59
2022/02/24 05:07:11;;;;;;;30.10;15.25;;;;;;;6.86;53.57;102201.16;5111497;28;20503;-59
2022/02/24 05:09:39;;;;;;;28.33;14.70;;;;;;;6.81;53.73;102200.38;5111438;28;20047;-59
2022/02/24 05:12:06;;;;;;;28.30;14.57;;;;;;;6.78;53.89;102200.41;5110707;28;20094;-59
2022/02/24 05:14:33;;;;;;;21.10;13.98;;;;;;;6.76;54.11;102199.59;5111236;28;20070;-58
2022/02/24 05:17:00;;;;;;;26.75;14.98;;;;;;;6.77;53.91;102201.31;5111848;28;20060;-59
2022/02/24 05:19:27;;;;;;;22.48;14.25;;;;;;;6.79;54.09;102207.34;5111126;28;20561;-59
2022/02/24 05:21:54;;;;;;;23.23;14.45;;;;;;;6.78;54.14;102198.66;5105017;28;20453;-58
2022/02/24 05:24:23;;;;;;;20.77;13.13;;;;;;;6.78;54.41;102203.00;5099113;28;20154;-59
2022/02/24 05:26:50;;;;;;;25.98;14.57;;;;;;;6.75;54.52;102195.25;5104948;28;20055;-58
2022/02/24 05:29:16;;;;;;;22.33;14.20;;;;;;;6.79;54.56;102199.53;5100326;28;20040;-58
2022/02/24 05:31:43;;;;;;;22.30;14.90;;;;;;;6.82;54.45;102204.69;5103689;28;20050;-59
2022/02/24 05:34:09;;;;;;;24.38;16.00;;;;;;;6.81;54.52;102197.75;5102141;28;20118;-59
2022/02/24 05:36:38;;;;;;;22.33;14.18;;;;;;;6.79;54.72;102197.78;5105248;27;20044;-59
2022/02/24 05:39:05;;;;;;;25.58;14.88;;;;;;;6.75;54.77;102190.88;5097681;28;20046;-59
2022/02/24 05:41:32;;;;;;;23.63;13.93;;;;;;;6.74;54.70;102194.38;5101663;28;20102;-58
2022/02/24 05:44:01;;;;;;;23.00;14.45;;;;;;;6.72;54.72;102185.72;5100369;28;20074;-59
2022/02/24 05:46:27;;;;;;;25.55;14.98;;;;;;;6.71;55.08;102189.22;5101180;28;20510;-59
2022/02/24 05:48:54;;;;;;;24.08;15.00;;;;;;;6.66;54.85;102191.91;5110821;28;20097;-58
2022/02/24 05:51:21;;;;;;;22.33;14.13;;;;;;;6.67;54.76;102192.78;5108204;28;20507;-59
2022/02/24 05:53:48;;;;;;;21.73;13.50;;;;;;;6.64;54.92;102195.41;5105965;28;20043;-58
2022/02/24 05:56:14;;;;;;;22.70;14.45;;;;;;;6.65;55.06;102194.53;5106686;28;20043;-58
2022/02/24 05:58:42;;;;;;;23.48;14.95;;;;;;;6.65;55.12;102190.19;5107993;28;20051;-59
2022/02/24 06:01:10;;;;;;;22.20;14.38;;;;;;;6.64;54.92;102196.28;5107621;28;20055;-59
2022/02/24 06:03:37;;;;;;;22.40;13.35;;;;;;;6.66;55.01;102194.50;5090687;28;20048;-59
2022/02/24 06:06:05;;;;;;;26.88;15.68;;;;;;;6.67;54.84;102184.94;5105525;28;20055;-59
2022/02/24 06:08:31;;;;;;;27.98;15.45;;;;;;;6.68;54.94;102186.69;5108395;28;20120;-59
2022/02/24 06:10:58;;;;;;;25.27;14.20;;;;;;;6.71;54.82;102181.41;5106283;28;20036;-59
2022/02/24 06:13:26;;;;;;;23.48;13.95;;;;;;;6.70;54.77;102177.94;5102724;27;20052;-59
2022/02/24 06:15:53;;;;;;;23.65;15.23;;;;;;;6.74;54.67;102181.31;5102244;28;20100;-59
2022/02/24 06:18:19;;;;;;;25.48;14.45;;;;;;;6.74;54.68;102176.09;5107884;28;20048;-59
2022/02/24 06:20:46;;;;;;;25.80;16.77;;;;;;;6.81;54.84;102176.88;5107410;28;20553;-59
2022/02/24 06:23:13;;;;;;;25.10;16.00;;;;;;;6.85;54.79;102179.41;5106434;28;20484;-59
2022/02/24 06:25:40;;;;;;;31.67;16.80;;;;;;;6.93;54.90;102171.47;5107841;28;20774;-60
2022/02/24 06:28:07;;;;;;;25.58;16.63;;;;;;;6.96;54.82;102175.75;5105689;28;20404;-60
2022/02/24 06:30:34;;;;;;;26.52;17.45;;;;;;;7.05;54.86;102167.75;5107042;28;20074;-60
2022/02/24 06:33:02;;;;;;;26.55;17.00;;;;;;;7.10;55.15;102165.91;5105752;28;20052;-59
2022/02/24 06:35:29;;;;;;;30.85;17.23;;;;;;;7.12;55.11;102173.69;5107926;28;20488;-60
2022/02/24 06:37:56;;;;;;;31.38;16.85;;;;;;;7.16;55.23;102165.78;5105549;28;20047;-59
2022/02/24 06:40:23;;;;;;;24.98;15.95;;;;;;;7.18;55.34;102184.03;5107923;28;20044;-60
2022/02/24 06:42:50;;;;;;;29.98;16.92;;;;;;;7.22;55.40;102177.00;5107169;28;20047;-59
2022/02/24 06:45:17;;;;;;;29.85;16.45;;;;;;;7.27;55.31;102172.56;5093767;28;20047;-58
2022/02/24 06:47:43;;;;;;;29.45;16.98;;;;;;;7.29;55.45;102169.00;5105315;27;20450;-57
2022/02/24 06:50:11;;;;;;;29.60;16.35;;;;;;;7.35;55.50;102173.25;5102227;28;20047;-58
2022/02/24 06:52:38;;;;;;;26.45;16.60;;;;;;;7.37;55.59;102170.63;5108801;28;20126;-58
2022/02/24 06:55:06;;;;;;;30.67;17.15;;;;;;;7.43;55.62;102167.91;5109348;28;20043;-58
2022/02/24 06:57:38;;;;;;;31.17;17.38;;;;;;;7.46;55.89;102171.28;5109394;28;20047;-58
2022/02/24 07:00:07;;;;;;;27.05;16.42;;;;;;;7.51;55.81;102172.03;5109371;28;20047;-58
2022/02/24 07:02:34;;;;;;;28.30;17.42;;;;;;;7.53;55.91;102177.25;5109475;28;20087;-58
2022/02/24 07:05:04;;;;;;;33.55;17.40;;;;;;;7.58;56.06;102174.53;5099565;28;20559;-58
2022/02/24 07:07:34;;;;;;;30.85;17.67;;;;;;;7.61;56.01;102172.72;5109456;27;20126;-59
2022/02/24 07:10:04;;;;;;;30.23;17.77;;;;;;;7.62;56.21;102168.38;5097191;28;20074;-59
2022/02/24 07:12:33;;;;;;;26.70;16.80;;;;;;;7.63;56.16;102167.44;5095729;28;20480;-59
2022/02/24 07:15:00;;;;;;;30.30;17.67;;;;;;;7.68;56.42;102171.69;5109165;28;20055;-59
2022/02/24 07:17:26;;;;;;;30.42;18.85;;;;;;;7.71;56.48;102165.56;5106566;28;20124;-58
2022/02/24 07:19:53;;;;;;;36.05;18.20;;;;;;;7.77;56.48;102164.53;5109035;28;20048;-60
2022/02/24 07:22:20;;;;;;;31.42;17.95;;;;;;;7.89;56.31;102168.66;5088403;28;20168;-59
2022/02/24 07:24:46;;;;;;;38.47;18.85;;;;;;;7.98;56.24;102165.81;5104394;28;20043;-60
2022/02/24 07:27:13;;;;;;;29.92;18.33;;;;;;;8.04;56.27;102160.47;5098572;28;20082;-59
2022/02/24 07:29:40;;;;;;;37.30;18.42;;;;;;;8.13;56.15;102156.78;5108779;28;20093;-59
2022/02/24 07:32:10;;;;;;;39.28;19.40;;;;;;;8.30;55.78;102152.00;5109095;28;20047;-59
2022/02/24 07:34:37;;;;;;;33.22;19.90;;;;;;;8.53;55.40;102152.34;5108769;28;20063;-59
2022/02/24 07:37:03;;;;;;;34.42;19.02;;;;;;;8.71;55.06;102159.75;5108596;28;20403;-59
2022/02/24 07:39:30;;;;;;;34.75;19.40;;;;;;;8.79;54.79;102162.16;5093832;28;20044;-59
2022/02/24 07:41:56;;;;;;;33.55;18.95;;;;;;;8.91;54.79;102163.59;5107591;28;20128;-59
2022/02/24 07:44:23;;;;;;;34.78;18.83;;;;;;;9.06;54.33;102164.94;5098607;28;20098;-59
2022/02/24 07:46:50;;;;;;;31.50;19.60;;;;;;;9.13;54.29;102156.88;5101333;28;20052;-59
2022/02/24 07:49:17;;;;;;;32.05;19.00;;;;;;;9.29;54.17;102162.53;5096110;28;20051;-59
2022/02/24 07:51:48;;;;;;;33.80;19.60;;;;;;;9.38;53.98;102158.78;5091055;28;20048;-59
2022/02/24 07:54:15;;;;;;;33.15;19.40;;;;;;;9.43;54.02;102158.66;5090162;28;20114;-59
2022/02/24 07:56:41;;;;;;;26.48;16.75;;;;;;;9.60;53.85;102160.78;5091346;28;20040;-59
2022/02/24 07:59:14;;;;;;;24.85;16.52;;;;;;;9.84;53.39;102163.56;5093125;28;20066;-59
2022/02/24 08:01:40;;;;;;;26.00;15.85;;;;;;;10.03;53.08;102158.59;5091294;28;20044;-59
2022/02/24 08:04:07;;;;;;;23.65;15.38;;;;;;;10.08;52.97;102154.06;5093041;28;20048;-59
2022/02/24 08:06:35;;;;;;;29.20;15.40;;;;;;;10.16;52.79;102156.44;5093616;28;20044;-59
2022/02/24 08:09:05;;;;;;;28.77;16.05;;;;;;;10.23;52.70;102140.47;5091651;28;20044;-59
2022/02/24 08:11:35;;;;;;;21.10;14.65;;;;;;;10.28;52.50;102141.19;5093440;28;20047;-59
2022/02/24 08:14:03;;;;;;;25.75;14.57;;;;;;;10.31;52.34;102145.47;5091443;28;20048;-59
2022/02/24 08:16:30;;;;;;;30.15;14.75;;;;;;;10.39;52.20;102137.38;5095293;28;20145;-59
2022/02/24 08:19:01;;;;;;;25.33;15.63;;;;;;;10.54;51.74;102131.59;5089701;28;20044;-59
2022/02/24 08:21:28;;;;;;;26.92;15.77;;;;;;;10.65;51.54;102138.25;5095113;28;20040;-59
2022/02/24 08:23:54;;;;;;;31.25;16.73;;;;;;;10.76;51.24;102130.88;5092879;28;20094;-59
2022/02/24 08:26:24;;;;;;;25.80;15.38;;;;;;;10.91;50.77;102125.06;5098168;28;20044;-61
2022/02/24 08:28:51;;;;;;;24.88;15.43;;;;;;;11.04;50.65;102125.47;5097897;28;20093;-61
2022/02/24 08:31:18;;;;;;;24.42;15.63;;;;;;;11.16;50.28;102126.81;5104518;28;20123;-61
2022/02/24 08:33:45;;;;;;;25.02;14.93;;;;;;;11.31;50.10;102122.72;5102153;28;20039;-61
2022/02/24 08:36:11;;;;;;;25.67;15.07;;;;;;;11.42;50.09;102117.94;5075677;28;20056;-61
2022/02/24 08:38:38;;;;;;;31.20;15.93;;;;;;;11.59;49.61;102119.94;5095199;28;20040;-61
2022/02/24 08:41:25;;;;;;;23.48;14.00;;;;;;;11.72;49.46;102122.09;5094177;28;20567;-59
2022/02/24 08:43:51;;;;;;;21.92;14.48;;;;;;;11.84;49.26;102112.84;5093984;28;20114;-60
2022/02/24 08:46:18;;;;;;;20.25;12.90;;;;;;;12.05;48.91;102113.78;5104809;27;20044;-61
2022/02/24 08:48:45;;;;;;;23.42;13.65;;;;;;;12.23;48.28;102110.38;5108968;28;20043;-61
2022/02/24 08:51:11;;;;;;;23.63;14.38;;;;;;;12.43;47.60;102100.81;5110873;28;20044;-60
2022/02/24 08:53:38;;;;;;;23.50;14.50;;;;;;;12.67;47.32;102103.28;5099107;28;20404;-59
2022/02/24 08:56:04;;;;;;;23.10;13.90;;;;;;;12.90;46.41;102097.03;5104357;28;20051;-59
2022/02/24 08:58:31;;;;;;;20.65;14.10;;;;;;;13.15;45.73;102088.84;5083937;28;20089;-60
2022/02/24 09:00:58;;;;;;;26.08;14.85;;;;;;;13.38;45.24;102095.72;5102603;28;20077;-59
2022/02/24 09:03:25;;;;;;;23.90;15.65;;;;;;;13.52;44.81;102091.56;5087478;28;20055;-59
2022/02/24 09:05:52;;;;;;;31.88;15.75;;;;;;;13.73;44.52;102094.13;5107957;28;20307;-59
2022/02/24 09:08:18;;;;;;;24.65;14.23;;;;;;;14.01;43.67;102077.78;5109452;28;20044;-59
2022/02/24 09:10:45;;;;;;;27.88;15.18;;;;;;;14.27;42.76;102078.25;5105582;28;20502;-59
2022/02/24 09:13:12;;;;;;;24.42;14.93;;;;;;;14.50;42.22;102074.44;5106043;28;20500;-60
2022/02/24 09:15:38;;;;;;;22.17;14.02;;;;;;;14.63;41.79;102066.75;5102567;28;20060;-59
2022/02/24 09:18:06;;;;;;;25.17;13.65;;;;;;;14.60;41.57;102062.47;5102373;27;20484;-61
2022/02/24 09:20:36;;;;;;;21.77;12.90;;;;;;;14.65;41.48;102049.91;5104962;28;20050;-61
2022/02/24 09:23:02;;;;;;;21.00;12.88;;;;;;;14.65;40.92;102043.75;5107598;28;20055;-61
2022/02/24 09:25:29;;;;;;;23.48;12.98;;;;;;;14.67;40.78;102044.53;5101068;28;20043;-61
2022/02/24 09:27:55;;;;;;;23.65;13.70;;;;;;;14.76;40.24;102037.91;5099092;28;20056;-59
2022/02/24 09:30:22;;;;;;;22.52;12.63;;;;;;;15.06;39.97;102039.81;5103248;28;20541;-61
2022/02/24 09:32:56;;;;;;;25.50;13.50;;;;;;;15.39;39.02;102042.38;5098065;28;20126;-61
2022/02/24 09:35:23;;;;;;;21.17;13.50;;;;;;;15.51;38.74;102047.00;5101581;28;20039;-61
2022/02/24 09:37:50;;;;;;;24.23;14.02;;;;;;;15.60;38.87;102042.94;5078849;28;20462;-61
2022/02/24 09:40:17;;;;;;;27.15;14.43;;;;;;;15.63;38.45;102042.78;5102975;28;20934;-58
2022/02/24 09:43:04;;;;;;;25.27;15.50;;;;;;;15.68;38.87;102040.72;5103730;28;20056;-60
2022/02/24 09:45:31;;;;;;;25.58;16.02;;;;;;;15.48;39.45;102035.72;5108602;28;20048;-60
2022/02/24 09:48:04;;;;;;;27.00;16.63;;;;;;;15.23;39.27;102030.97;5108797;28;20112;-61
2022/02/24 09:50:33;;;;;;;25.67;16.67;;;;;;;14.99;39.87;102032.22;5105291;28;20096;-61
2022/02/24 09:53:00;;;;;;;30.75;18.52;;;;;;;14.90;40.26;102037.16;5108720;28;20054;-60
2022/02/24 09:55:27;;;;;;;28.67;15.93;;;;;;;14.92;40.11;102036.16;5109632;28;20040;-61
2022/02/24 09:57:53;;;;;;;24.80;14.77;;;;;;;14.91;40.14;102028.31;5095279;28;20052;-63
2022/02/24 10:00:20;;;;;;;19.92;11.38;;;;;;;14.76;40.02;102046.66;5092877;28;20044;-63
2022/02/24 10:02:48;;;;;;;19.60;10.65;;;;;;;14.51;40.08;102040.03;5095588;28;20491;-63
2022/02/24 10:05:16;;;;;;;19.67;12.52;;;;;;;14.26;40.00;102043.09;5093041;28;20048;-63
2022/02/24 10:07:43;;;;;;;20.10;11.98;;;;;;;14.17;39.90;102047.06;5092249;28;20047;-61
2022/02/24 10:10:31;;;;;;;16.42;9.68;;;;;;;14.04;39.70;102038.03;5091513;28;20056;-63
2022/02/24 10:13:04;;;;;;;16.13;9.55;;;;;;;14.06;39.32;102040.63;5093086;28;20122;-63
2022/02/24 10:15:31;;;;;;;15.50;9.43;;;;;;;14.14;39.61;102049.00;5107183;28;20043;-62
2022/02/24 10:18:09;;;;;;;22.20;12.82;;;;;;;14.11;39.89;102042.09;5108435;28;20075;-62
2022/02/24 10:20:41;;;;;;;29.48;16.98;;;;;;;14.28;39.47;102038.56;5107552;28;20039;-62
2022/02/24 10:23:09;;;;;;;27.30;15.95;;;;;;;14.80;38.81;102027.06;5100221;28;20044;-63
2022/02/24 10:25:41;;;;;;;26.70;14.85;;;;;;;15.21;38.11;102024.88;5089840;28;20082;-63
2022/02/24 10:28:46;;;;;;;24.45;14.48;;;;;;;15.27;37.58;102025.41;5089494;28;20185;-63
2022/02/24 10:31:15;;;;;;;21.70;12.43;;;;;;;15.30;37.62;102019.94;5089882;28;20055;-62
2022/02/24 10:33:44;;;;;;;20.98;12.32;;;;;;;15.95;36.52;102020.72;5089545;28;20127;-62
2022/02/24 10:36:22;;;;;;;18.55;11.30;;;;;;;16.12;36.17;102023.19;5089631;28;20210;-63
2022/02/24 10:39:07;;;;;;;15.15;8.77;;;;;;;16.45;34.91;102011.50;5093221;28;20044;-62
2022/02/24 10:41:40;;;;;;;17.73;10.43;;;;;;;16.26;35.21;102019.72;5093648;28;20492;-62
2022/02/24 10:44:16;;;;;;;19.27;11.85;;;;;;;16.36;35.21;102009.41;5093743;28;20052;-62
2022/02/24 10:46:45;;;;;;;18.73;10.88;;;;;;;16.53;34.96;102003.09;5100412;28;20047;-62
2022/02/24 10:49:25;;;;;;;18.50;11.45;;;;;;;16.77;34.66;101989.25;5108777;28;20431;-62
2022/02/24 10:52:18;;;;;;;19.35;11.10;;;;;;;17.05;33.87;101980.44;5109447;28;20044;-62
2022/02/24 10:54:57;;;;;;;17.15;10.88;;;;;;;17.05;33.53;101977.78;5108709;28;20043;-62
2022/02/24 10:57:26;;;;;;;18.25;11.48;;;;;;;16.81;33.98;101980.16;5107923;27;20043;-62
2022/02/24 10:59:55;;;;;;;18.60;12.75;;;;;;;16.40;34.48;101973.00;5091066;28;20102;-62
2022/02/24 11:02:24;;;;;;;18.65;11.02;;;;;;;16.44;34.73;101971.84;5092704;28;20054;-62
2022/02/24 11:04:53;;;;;;;16.40;10.27;;;;;;;16.59;33.90;101970.91;5092415;28;20040;-62
2022/02/24 11:07:21;;;;;;;16.50;9.98;;;;;;;17.36;32.80;101966.97;5091546;28;20128;-61
2022/02/24 11:09:49;;;;;;;13.02;8.32;;;;;;;17.43;32.65;101962.94;5090159;28;20051;-61
2022/02/24 11:12:17;;;;;;;13.30;7.82;;;;;;;17.33;32.56;101960.06;5095094;28;20519;-62
2022/02/24 11:14:47;;;;;;;13.55;8.15;;;;;;;17.46;31.74;101953.00;5101748;28;20046;-61
2022/02/24 11:17:14;;;;;;;13.52;7.28;;;;;;;17.58;31.84;101948.66;5091395;28;20048;-61